Time;durP1;ratioP1;P1;durP2;ratioP2;P2;SDS_P1;SDS_P2;PMS_P1;PMS_P2;Temp;Humidity;BMP_temperature;BMP_pressure;BME280_temperature;BME280_humidity;BME280_pressure;Samples;Min_cycle;Max_cycle;Signal;HPM_P1;HPM_P2
2022/04/22 00:00:37;;;;;;;5.78;4.82;;;;;;;;;;5032535;28;20057;-66
2022/04/22 00:03:07;;;;;;;5.90;4.57;;;;;;;;;;5032079;28;20063;-66
2022/04/22 00:05:35;;;;;;;6.88;5.30;;;;;;;;;;5032050;28;20171;-67
2022/04/22 00:08:02;;;;;;;7.10;5.03;;;;;;;;;;5031588;28;20061;-67
2022/04/22 00:10:29;;;;;;;6.70;5.15;;;;;;;;;;5031811;28;20099;-67
2022/04/22 00:12:55;;;;;;;7.03;4.80;;;;;;;;;;5031390;28;20061;-67
2022/04/22 00:15:22;;;;;;;8.52;5.32;;;;;;;;;;5032163;28;20057;-67
2022/04/22 00:17:49;;;;;;;6.13;5.53;;;;;;;;;;5031949;28;20057;-67
2022/04/22 00:20:16;;;;;;;7.80;5.68;;;;;;;;;;5031552;28;20052;-67
2022/04/22 00:22:43;;;;;;;6.20;5.57;;;;;;;;;;5031605;28;20069;-68
2022/04/22 00:25:10;;;;;;;8.50;6.63;;;;;;;;;;5031868;28;20527;-67
2022/04/22 00:27:38;;;;;;;7.28;5.35;;;;;;;;;;5031743;28;20313;-68
2022/04/22 00:30:09;;;;;;;8.75;6.63;;;;;;;;;;5031603;28;20057;-67
2022/04/22 00:32:37;;;;;;;7.10;5.70;;;;;;;;;;5031813;28;20060;-67
2022/04/22 00:35:04;;;;;;;8.20;6.07;;;;;;;;;;5031594;28;20052;-67
2022/04/22 00:37:31;;;;;;;7.78;6.18;;;;;;;;;;5031654;28;20049;-67
2022/04/22 00:39:57;;;;;;;8.35;5.95;;;;;;;;;;5031490;28;20096;-68
2022/04/22 00:42:28;;;;;;;7.80;6.07;;;;;;;;;;5031800;28;20135;-67
2022/04/22 00:44:56;;;;;;;8.88;6.60;;;;;;;;;;5031934;28;20041;-67
2022/04/22 00:47:23;;;;;;;8.95;6.65;;;;;;;;;;5031736;28;20088;-67
2022/04/22 00:49:50;;;;;;;10.38;6.82;;;;;;;;;;5031386;28;20053;-67
2022/04/22 00:52:19;;;;;;;9.23;7.13;;;;;;;;;;5031425;28;20054;-67
2022/04/22 00:54:46;;;;;;;8.27;6.45;;;;;;;;;;5030137;28;20398;-67
2022/04/22 00:57:13;;;;;;;8.10;7.07;;;;;;;;;;5031816;28;20053;-67
2022/04/22 00:59:40;;;;;;;8.02;6.30;;;;;;;;;;5031518;28;20470;-67
2022/04/22 01:02:06;;;;;;;8.85;6.88;;;;;;;;;;5030216;28;20049;-67
2022/04/22 01:10:09;;;;;;;10.95;7.38;;;;;;;;;;5031536;28;20408;-67
2022/04/22 01:12:35;;;;;;;10.25;7.28;;;;;;;;;;5030075;28;20057;-67
2022/04/22 01:15:02;;;;;;;9.45;6.80;;;;;;;;;;5031317;28;20092;-67
2022/04/22 01:17:29;;;;;;;10.30;7.55;;;;;;;;;;5032294;28;20057;-67
2022/04/22 01:19:57;;;;;;;11.43;7.47;;;;;;;;;;5039787;28;20057;-66
2022/04/22 01:22:23;;;;;;;10.05;6.95;;;;;;;;;;5047921;28;20053;-67
2022/04/22 01:25:08;;;;;;;12.57;7.50;;;;;;;;;;5035289;28;20146;-67
2022/04/22 01:27:35;;;;;;;10.80;7.93;;;;;;;;;;5034907;28;20468;-67
2022/04/22 01:30:03;;;;;;;9.88;7.75;;;;;;;;;;5016939;28;20488;-67
2022/04/22 01:32:30;;;;;;;9.98;7.38;;;;;;;;;;5034939;28;20049;-67
2022/04/22 01:34:57;;;;;;;9.02;6.95;;;;;;;;;;5035009;28;20049;-67
2022/04/22 01:37:23;;;;;;;10.70;7.63;;;;;;;;;;5034877;28;20059;-67
2022/04/22 01:39:50;;;;;;;11.45;8.57;;;;;;;;;;5034440;28;20045;-67
2022/04/22 01:42:20;;;;;;;11.30;8.48;;;;;;;;;;5034768;28;20054;-67
2022/04/22 01:44:47;;;;;;;11.93;8.60;;;;;;;;;;5034687;28;20050;-67
2022/04/22 01:47:14;;;;;;;12.00;8.73;;;;;;;;;;5034538;28;20050;-67
2022/04/22 01:49:41;;;;;;;10.73;8.45;;;;;;;;;;5034782;28;20053;-67
2022/04/22 01:52:08;;;;;;;11.45;8.77;;;;;;;;;;5034187;28;20060;-67
2022/04/22 01:54:35;;;;;;;11.63;8.73;;;;;;;;;;5034316;28;20045;-67
2022/04/22 01:57:03;;;;;;;12.13;8.98;;;;;;;;;;5034299;28;20527;-67
2022/04/22 01:59:29;;;;;;;12.98;8.93;;;;;;;;;;5033983;28;20061;-67
2022/04/22 02:01:58;;;;;;;14.55;10.00;;;;;;;;;;5034554;28;20409;-67
2022/04/22 02:04:25;;;;;;;12.85;9.88;;;;;;;;;;5034116;28;20057;-67
2022/04/22 02:06:51;;;;;;;11.48;8.88;;;;;;;;;;5033197;28;20050;-67
2022/04/22 02:09:18;;;;;;;10.85;8.45;;;;;;;;;;5033951;28;20049;-67
2022/04/22 02:11:45;;;;;;;12.32;9.18;;;;;;;;;;5033760;28;20052;-67
2022/04/22 02:14:12;;;;;;;12.32;9.18;;;;;;;;;;5034173;28;20045;-67
2022/04/22 02:16:39;;;;;;;14.48;10.38;;;;;;;;;;5034199;28;20049;-67
2022/04/22 02:19:05;;;;;;;12.02;9.95;;;;;;;;;;5034041;28;20057;-67
2022/04/22 02:21:32;;;;;;;13.60;10.35;;;;;;;;;;5033708;28;20057;-67
2022/04/22 02:23:58;;;;;;;13.63;10.23;;;;;;;;;;5033060;28;20042;-67
2022/04/22 02:26:25;;;;;;;13.63;9.10;;;;;;;;;;5033635;28;20054;-67
2022/04/22 02:28:52;;;;;;;13.07;9.93;;;;;;;;;;5033480;28;20053;-67
2022/04/22 02:31:19;;;;;;;13.18;10.05;;;;;;;;;;5033604;28;20045;-68
2022/04/22 02:33:46;;;;;;;14.80;10.63;;;;;;;;;;5033307;28;20081;-66
2022/04/22 02:36:15;;;;;;;16.30;11.77;;;;;;;;;;5033570;28;20055;-67
2022/04/22 02:38:42;;;;;;;13.25;10.68;;;;;;;;;;5033590;28;20500;-67
2022/04/22 02:46:39;;;;;;;14.27;11.50;;;;;;;;;;5013249;28;20050;-67
2022/04/22 02:49:06;;;;;;;14.82;10.82;;;;;;;;;;5013426;28;20138;-67
2022/04/22 02:51:32;;;;;;;16.85;12.25;;;;;;;;;;5013153;28;20057;-67
2022/04/22 02:53:59;;;;;;;17.55;11.63;;;;;;;;;;5013383;28;20149;-67
2022/04/22 02:56:26;;;;;;;16.35;11.50;;;;;;;;;;5013504;28;20057;-67
2022/04/22 02:58:54;;;;;;;17.45;12.25;;;;;;;;;;4976629;28;20167;-67
2022/04/22 03:01:21;;;;;;;15.63;11.93;;;;;;;;;;4992956;28;20063;-67
2022/04/22 03:03:48;;;;;;;15.23;11.70;;;;;;;;;;4992959;28;20105;-67
2022/04/22 03:06:15;;;;;;;19.98;13.25;;;;;;;;;;5009189;28;20081;-67
2022/04/22 03:08:41;;;;;;;27.70;18.23;;;;;;;;;;4993927;28;20507;-67
2022/04/22 03:11:08;;;;;;;32.53;18.05;;;;;;;;;;5006482;28;20539;-67
2022/04/22 03:13:34;;;;;;;54.05;29.15;;;;;;;;;;4995555;28;20515;-67
2022/04/22 03:16:02;;;;;;;29.88;19.48;;;;;;;;;;5012868;28;20328;-67
2022/04/22 03:18:29;;;;;;;17.75;12.20;;;;;;;;;;5012514;28;20050;-67
2022/04/22 03:20:57;;;;;;;16.05;12.63;;;;;;;;;;4995708;28;20060;-67
2022/04/22 03:23:24;;;;;;;17.92;12.77;;;;;;;;;;5011869;28;20060;-68
2022/04/22 03:25:50;;;;;;;20.33;13.15;;;;;;;;;;5014192;28;20046;-68
2022/04/22 03:28:17;;;;;;;17.65;12.65;;;;;;;;;;5013272;28;20060;-68
2022/04/22 03:30:44;;;;;;;17.55;12.32;;;;;;;;;;5002151;28;20055;-69
2022/04/22 03:33:11;;;;;;;17.13;13.50;;;;;;;;;;5007673;28;20053;-68
2022/04/22 03:35:38;;;;;;;19.15;13.63;;;;;;;;;;5004910;28;20042;-68
2022/04/22 03:38:05;;;;;;;21.60;14.13;;;;;;;;;;4993821;28;20053;-68
2022/04/22 03:40:32;;;;;;;19.35;14.10;;;;;;;;;;4991242;28;20402;-68
2022/04/22 03:42:58;;;;;;;21.25;13.63;;;;;;;;;;4992234;28;20046;-68
2022/04/22 03:45:25;;;;;;;20.55;15.23;;;;;;;;;;4991593;28;20418;-67
2022/04/22 03:47:52;;;;;;;19.02;14.75;;;;;;;;;;4992890;28;20093;-68
2022/04/22 03:50:18;;;;;;;20.38;15.27;;;;;;;;;;5003591;28;20049;-68
2022/04/22 03:52:45;;;;;;;20.23;14.95;;;;;;;;;;5010877;28;20053;-67
2022/04/22 03:55:12;;;;;;;19.58;14.75;;;;;;;;;;4978874;28;20072;-68
2022/04/22 04:00:24;;;;;;;21.65;15.90;;;;;;;;;;5011196;28;20054;-68
2022/04/22 04:02:51;;;;;;;26.40;17.25;;;;;;;;;;4994829;28;20049;-68
2022/04/22 04:05:18;;;;;;;23.08;15.68;;;;;;;;;;4994755;28;20050;-68
2022/04/22 04:07:44;;;;;;;23.13;15.77;;;;;;;;;;5012235;28;20046;-67
2022/04/22 04:16:03;;;;;;;23.27;16.27;;;;;;;;;;5012002;28;20093;-68
2022/04/22 04:18:34;;;;;;;26.20;17.27;;;;;;;;;;5012180;28;20060;-68
2022/04/22 04:23:47;;;;;;;23.88;17.00;;;;;;;;;;4997476;28;20496;-68
2022/04/22 04:26:15;;;;;;;24.65;16.30;;;;;;;;;;5010611;28;20049;-68
2022/04/22 04:28:43;;;;;;;26.23;17.50;;;;;;;;;;5010887;28;20072;-68
2022/04/22 04:31:11;;;;;;;23.85;17.67;;;;;;;;;;5010425;28;20062;-68
2022/04/22 04:33:38;;;;;;;23.88;16.88;;;;;;;;;;5010639;28;20046;-68
2022/04/22 04:36:05;;;;;;;23.85;17.42;;;;;;;;;;5010988;28;20045;-68
2022/04/22 04:38:32;;;;;;;26.77;18.45;;;;;;;;;;4994634;28;20416;-68
2022/04/22 04:40:59;;;;;;;28.17;17.88;;;;;;;;;;4994591;28;20420;-67
2022/04/22 04:43:26;;;;;;;24.30;17.17;;;;;;;;;;5010671;28;20046;-68
2022/04/22 04:45:53;;;;;;;27.40;18.17;;;;;;;;;;5010609;28;20054;-67
2022/04/22 04:48:21;;;;;;;27.77;18.42;;;;;;;;;;5010665;28;20054;-68
2022/04/22 04:50:49;;;;;;;22.88;17.02;;;;;;;;;;5010500;28;20061;-68
2022/04/22 04:53:17;;;;;;;26.65;18.63;;;;;;;;;;5012857;28;20057;-68
2022/04/22 04:55:44;;;;;;;27.52;17.50;;;;;;;;;;5015523;28;20046;-68
2022/04/22 04:58:11;;;;;;;28.92;18.35;;;;;;;;;;5015816;28;20065;-69
2022/04/22 05:00:38;;;;;;;29.48;17.40;;;;;;;;;;5014149;28;20054;-68
2022/04/22 05:03:05;;;;;;;27.50;18.58;;;;;;;;;;4998455;28;20108;-68
2022/04/22 05:05:32;;;;;;;27.98;18.13;;;;;;;;;;5014342;28;20057;-68
2022/04/22 05:07:59;;;;;;;26.33;18.85;;;;;;;;;;5015537;28;20045;-68
2022/04/22 05:10:28;;;;;;;26.55;18.75;;;;;;;;;;5014306;28;20501;-68
2022/04/22 05:12:55;;;;;;;29.35;17.88;;;;;;;;;;5013864;28;20057;-68
2022/04/22 05:15:23;;;;;;;27.90;18.08;;;;;;;;;;5014260;28;20428;-68
2022/04/22 05:17:51;;;;;;;26.23;18.30;;;;;;;;;;5014147;28;20518;-67
2022/04/22 05:20:20;;;;;;;30.35;20.15;;;;;;;;;;5014239;28;20056;-68
2022/04/22 05:22:47;;;;;;;31.25;19.65;;;;;;;;;;4998073;28;20050;-68
2022/04/22 05:25:14;;;;;;;26.85;19.13;;;;;;;;;;5014030;28;20045;-67
2022/04/22 05:27:41;;;;;;;27.02;19.48;;;;;;;;;;5013799;28;20062;-67
2022/04/22 05:32:54;;;;;;;25.88;18.70;;;;;;;;;;5000247;28;20496;-68
2022/04/22 05:35:22;;;;;;;26.70;18.17;;;;;;;;;;5014079;28;20468;-68
2022/04/22 05:37:50;;;;;;;23.92;17.23;;;;;;;;;;4997736;28;20045;-68
2022/04/22 05:40:18;;;;;;;29.70;19.15;;;;;;;;;;5013806;28;20052;-68
2022/04/22 05:42:48;;;;;;;27.73;19.83;;;;;;;;;;5013300;28;20054;-67
2022/04/22 05:45:15;;;;;;;30.88;19.65;;;;;;;;;;4995497;28;20053;-67
2022/04/22 05:47:42;;;;;;;26.60;18.52;;;;;;;;;;5011295;28;20505;-67
2022/04/22 05:50:11;;;;;;;27.42;18.55;;;;;;;;;;5011246;28;20053;-68
2022/04/22 05:52:38;;;;;;;26.85;18.92;;;;;;;;;;4994941;28;20058;-67
2022/04/22 05:55:08;;;;;;;26.90;17.70;;;;;;;;;;4995246;28;20129;-67
2022/04/22 05:57:35;;;;;;;25.70;18.27;;;;;;;;;;4995453;28;20054;-66
2022/04/22 06:00:23;;;;;;;25.88;18.67;;;;;;;;;;4995459;28;20050;-66
2022/04/22 06:02:51;;;;;;;31.33;19.02;;;;;;;;;;4995285;28;20104;-66
2022/04/22 06:05:20;;;;;;;25.92;18.10;;;;;;;;;;5011261;28;20048;-66
2022/04/22 06:07:47;;;;;;;28.90;19.17;;;;;;;;;;5012132;28;20063;-67
2022/04/22 06:10:32;;;;;;;31.30;19.98;;;;;;;;;;4994266;28;20548;-66
2022/04/22 06:12:59;;;;;;;29.73;20.85;;;;;;;;;;5012137;28;20532;-67
2022/04/22 06:15:26;;;;;;;29.58;21.13;;;;;;;;;;5010746;28;20046;-66
2022/04/22 06:17:53;;;;;;;29.17;20.95;;;;;;;;;;5011086;28;20058;-66
2022/04/22 06:20:20;;;;;;;29.10;21.25;;;;;;;;;;5012031;28;20050;-66
2022/04/22 06:22:47;;;;;;;24.85;18.15;;;;;;;;;;5011450;28;20057;-66
2022/04/22 06:25:13;;;;;;;29.48;18.95;;;;;;;;;;5011723;28;20053;-67
2022/04/22 06:27:42;;;;;;;32.38;21.02;;;;;;;;;;5010936;28;20053;-66
2022/04/22 06:30:13;;;;;;;26.98;19.10;;;;;;;;;;5010746;28;20057;-67
2022/04/22 06:32:42;;;;;;;28.58;19.85;;;;;;;;;;5009626;28;20134;-68
2022/04/22 06:35:10;;;;;;;26.58;19.50;;;;;;;;;;4974092;28;20404;-69
2022/04/22 06:37:43;;;;;;;29.48;19.98;;;;;;;;;;5002453;28;20523;-71
2022/04/22 06:45:48;;;;;;;28.40;19.90;;;;;;;;;;4972185;28;20468;-69
2022/04/22 06:48:20;;;;;;;29.40;20.20;;;;;;;;;;4998926;28;20061;-69
2022/04/22 06:51:07;;;;;;;28.30;20.15;;;;;;;;;;5003301;28;20519;-73
2022/04/22 06:53:34;;;;;;;27.75;18.88;;;;;;;;;;5004226;28;20497;-66
2022/04/22 06:56:02;;;;;;;28.10;19.33;;;;;;;;;;4982015;28;20047;-65
2022/04/22 06:58:37;;;;;;;27.23;18.52;;;;;;;;;;4999510;28;20046;-66
2022/04/22 07:01:05;;;;;;;26.17;18.42;;;;;;;;;;4995347;28;20050;-65
2022/04/22 07:03:52;;;;;;;23.55;17.63;;;;;;;;;;5000120;28;20053;-66
2022/04/22 07:06:18;;;;;;;25.67;18.40;;;;;;;;;;4996676;28;20042;-64
2022/04/22 07:08:46;;;;;;;23.98;18.40;;;;;;;;;;4994981;28;20085;-65
2022/04/22 07:11:26;;;;;;;25.45;19.35;;;;;;;;;;4997067;28;20491;-67
2022/04/22 07:13:54;;;;;;;24.30;18.35;;;;;;;;;;5001165;28;20046;-66
2022/04/22 07:16:21;;;;;;;23.52;18.60;;;;;;;;;;4997106;28;20046;-67
2022/04/22 07:18:47;;;;;;;24.58;18.70;;;;;;;;;;4998328;28;20042;-67
2022/04/22 07:21:15;;;;;;;25.40;18.42;;;;;;;;;;4997975;28;20042;-66
2022/04/22 07:23:42;;;;;;;26.33;18.20;;;;;;;;;;4997753;28;20063;-67
2022/04/22 07:26:10;;;;;;;24.60;18.08;;;;;;;;;;5001798;28;20096;-65
2022/04/22 07:28:38;;;;;;;23.35;18.13;;;;;;;;;;4997647;28;20050;-66
2022/04/22 07:31:05;;;;;;;23.52;17.73;;;;;;;;;;4982716;28;20088;-65
2022/04/22 07:33:32;;;;;;;25.13;18.30;;;;;;;;;;4977349;28;20497;-67
2022/04/22 07:35:59;;;;;;;22.90;17.38;;;;;;;;;;4998988;28;20044;-66
2022/04/22 07:38:28;;;;;;;22.08;17.13;;;;;;;;;;4997198;28;20081;-66
2022/04/22 07:40:55;;;;;;;23.40;17.70;;;;;;;;;;4982580;28;20046;-66
2022/04/22 07:48:56;;;;;;;23.73;18.48;;;;;;;;;;4982970;28;20045;-65
2022/04/22 07:51:24;;;;;;;22.50;17.60;;;;;;;;;;5000427;28;20054;-66
2022/04/22 07:53:51;;;;;;;22.77;17.25;;;;;;;;;;4997374;28;20050;-66
2022/04/22 07:56:18;;;;;;;22.85;16.67;;;;;;;;;;4998156;28;20476;-66
2022/04/22 07:58:44;;;;;;;22.60;16.27;;;;;;;;;;4996730;28;20058;-66
2022/04/22 08:01:11;;;;;;;21.75;17.23;;;;;;;;;;4998799;28;20520;-65
2022/04/22 08:03:38;;;;;;;20.50;16.60;;;;;;;;;;4998271;28;20193;-66
2022/04/22 08:06:06;;;;;;;21.42;16.40;;;;;;;;;;4998534;28;20051;-66
2022/04/22 08:08:33;;;;;;;21.17;15.85;;;;;;;;;;4996369;28;20055;-65
2022/04/22 08:10:59;;;;;;;19.58;15.00;;;;;;;;;;4999338;28;20045;-65
2022/04/22 08:13:26;;;;;;;19.67;16.13;;;;;;;;;;4996378;28;20057;-66
2022/04/22 08:15:53;;;;;;;19.98;15.48;;;;;;;;;;5002379;28;20065;-66
2022/04/22 08:18:19;;;;;;;22.38;15.77;;;;;;;;;;4996233;28;20038;-66
2022/04/22 08:20:46;;;;;;;19.13;15.77;;;;;;;;;;4999045;28;20417;-66
2022/04/22 08:23:13;;;;;;;20.02;15.05;;;;;;;;;;4997747;28;20051;-66
2022/04/22 08:25:41;;;;;;;18.95;15.88;;;;;;;;;;4997956;28;20046;-66
2022/04/22 08:28:07;;;;;;;21.67;15.55;;;;;;;;;;5002968;28;20529;-65
2022/04/22 08:30:35;;;;;;;19.80;16.00;;;;;;;;;;5005384;28;20050;-66
2022/04/22 08:33:02;;;;;;;19.75;16.35;;;;;;;;;;5004450;28;20045;-65
2022/04/22 08:35:29;;;;;;;22.23;15.80;;;;;;;;;;5003982;28;20486;-65
2022/04/22 08:37:58;;;;;;;18.17;15.05;;;;;;;;;;5004577;28;20050;-66
2022/04/22 08:40:26;;;;;;;20.50;15.60;;;;;;;;;;5037657;23;20058;-66
2022/04/22 08:42:53;;;;;;;18.73;14.93;;;;;;;;;;4959812;28;20050;-67
2022/04/22 08:45:19;;;;;;;19.85;15.48;;;;;;;;;;4978161;28;20046;-66
2022/04/22 08:50:31;;;;;;;19.45;15.00;;;;;;;;;;4977845;28;20512;-67
2022/04/22 08:53:06;;;;;;;18.63;14.63;;;;;;;;;;4978668;28;20050;-67
2022/04/22 08:55:33;;;;;;;18.98;14.95;;;;;;;;;;4978831;28;20047;-66
2022/04/22 08:58:00;;;;;;;18.50;14.82;;;;;;;;;;4979355;28;20078;-67
2022/04/22 09:00:27;;;;;;;17.83;14.00;;;;;;;;;;4979855;28;20051;-66
2022/04/22 09:02:54;;;;;;;18.08;13.98;;;;;;;;;;4977826;28;20186;-69
2022/04/22 09:05:21;;;;;;;17.35;13.32;;;;;;;;;;4978853;28;20057;-66
2022/04/22 09:07:48;;;;;;;17.60;14.52;;;;;;;;;;4967078;28;20381;-74
2022/04/22 09:10:15;;;;;;;16.17;14.23;;;;;;;;;;4968093;28;20051;-73
2022/04/22 09:12:50;;;;;;;18.15;13.88;;;;;;;;;;4976253;28;20053;-73
2022/04/22 09:15:17;;;;;;;18.83;14.25;;;;;;;;;;4958281;28;20492;-73
2022/04/22 09:17:48;;;;;;;18.25;13.57;;;;;;;;;;4978003;28;20051;-72
2022/04/22 09:20:17;;;;;;;17.77;14.07;;;;;;;;;;4978388;28;20129;-75
2022/04/22 09:22:44;;;;;;;17.17;13.73;;;;;;;;;;4977514;28;20518;-77
2022/04/22 09:25:11;;;;;;;16.55;13.75;;;;;;;;;;4978909;28;20050;-75
2022/04/22 09:27:42;;;;;;;19.10;13.65;;;;;;;;;;4977553;28;20050;-72
2022/04/22 09:30:11;;;;;;;15.85;12.75;;;;;;;;;;4978407;28;20073;-74
2022/04/22 09:32:43;;;;;;;16.75;13.63;;;;;;;;;;4985984;28;20105;-75
2022/04/22 09:35:20;;;;;;;16.98;13.40;;;;;;;;;;4992164;28;20529;-75
2022/04/22 09:43:38;;;;;;;18.20;13.90;;;;;;;;;;4975485;28;20541;-70
2022/04/22 09:46:27;;;;;;;15.10;12.95;;;;;;;;;;4971244;28;20549;-70
2022/04/22 09:48:56;;;;;;;15.63;12.40;;;;;;;;;;4974230;28;20556;-72
2022/04/22 09:51:27;;;;;;;15.90;12.52;;;;;;;;;;4974509;28;20059;-72
2022/04/22 09:54:01;;;;;;;14.43;12.82;;;;;;;;;;4977639;28;20149;-72
2022/04/22 09:56:28;;;;;;;14.88;11.65;;;;;;;;;;4965517;28;20503;-72
2022/04/22 09:58:55;;;;;;;15.00;12.68;;;;;;;;;;4972606;28;20061;-70
2022/04/22 10:01:24;;;;;;;13.60;11.55;;;;;;;;;;4971505;28;20054;-70
2022/04/22 10:04:10;;;;;;;16.13;12.25;;;;;;;;;;4986707;28;20068;-71
2022/04/22 10:06:38;;;;;;;13.30;11.77;;;;;;;;;;4965323;28;20445;-72
2022/04/22 10:09:05;;;;;;;13.85;11.68;;;;;;;;;;4964757;28;20066;-72
2022/04/22 10:11:31;;;;;;;14.90;11.40;;;;;;;;;;4997015;28;20057;-67
2022/04/22 10:13:58;;;;;;;13.05;10.88;;;;;;;;;;4972915;28;20524;-73
2022/04/22 10:16:25;;;;;;;12.77;10.95;;;;;;;;;;4988641;28;20054;-72
2022/04/22 10:18:52;;;;;;;13.52;11.07;;;;;;;;;;4962926;28;20051;-69
2022/04/22 10:21:19;;;;;;;14.07;11.45;;;;;;;;;;4972181;28;20049;-69
2022/04/22 10:23:46;;;;;;;12.95;10.70;;;;;;;;;;4972366;28;20047;-69
2022/04/22 10:26:13;;;;;;;12.20;11.00;;;;;;;;;;4988894;28;20112;-70
2022/04/22 10:28:41;;;;;;;13.48;10.68;;;;;;;;;;4988797;28;20054;-70
2022/04/22 10:31:08;;;;;;;12.95;10.63;;;;;;;;;;4972553;28;20051;-71
2022/04/22 10:33:42;;;;;;;14.25;11.43;;;;;;;;;;4972564;28;20051;-73
2022/04/22 10:36:14;;;;;;;13.80;10.98;;;;;;;;;;4974790;28;20054;-69
2022/04/22 10:38:45;;;;;;;12.38;11.05;;;;;;;;;;4986929;28;20125;-73
2022/04/22 10:41:19;;;;;;;12.07;9.77;;;;;;;;;;4975713;28;20051;-67
2022/04/22 10:49:43;;;;;;;12.75;11.15;;;;;;;;;;4974436;28;20053;-67
2022/04/22 10:52:14;;;;;;;10.55;9.43;;;;;;;;;;4971324;28;20046;-66
2022/04/22 10:54:58;;;;;;;13.57;9.90;;;;;;;;;;4973624;28;20058;-66
2022/04/22 10:57:27;;;;;;;12.13;10.50;;;;;;;;;;4973296;28;20054;-66
2022/04/22 11:00:11;;;;;;;11.57;10.02;;;;;;;;;;4986796;28;20051;-66
2022/04/22 11:02:42;;;;;;;10.43;9.27;;;;;;;;;;4970482;28;20054;-65
2022/04/22 11:07:50;;;;;;;12.20;9.65;;;;;;;;;;4973095;28;20046;-68
2022/04/22 11:10:18;;;;;;;11.70;9.65;;;;;;;;;;4969943;28;20130;-68
2022/04/22 11:12:54;;;;;;;10.68;9.38;;;;;;;;;;4972906;28;20055;-70
2022/04/22 11:15:42;;;;;;;12.98;9.45;;;;;;;;;;4973409;28;20054;-71
2022/04/22 11:18:16;;;;;;;13.48;9.95;;;;;;;;;;4970704;28;20484;-67
2022/04/22 11:20:44;;;;;;;12.77;10.63;;;;;;;;;;4964005;28;20062;-67
2022/04/22 11:23:12;;;;;;;10.68;9.40;;;;;;;;;;4970253;28;20052;-68
2022/04/22 11:25:39;;;;;;;11.52;9.55;;;;;;;;;;4971010;28;20061;-67
2022/04/22 11:28:06;;;;;;;10.20;9.13;;;;;;;;;;4993934;28;20054;-67
2022/04/22 11:30:32;;;;;;;12.35;9.77;;;;;;;;;;4991574;28;20061;-67
2022/04/22 11:33:10;;;;;;;11.63;10.05;;;;;;;;;;4969909;28;20097;-68
2022/04/22 11:35:37;;;;;;;14.85;9.70;;;;;;;;;;4968823;28;20047;-67
2022/04/22 11:38:04;;;;;;;10.73;9.30;;;;;;;;;;4983127;28;20272;-67
2022/04/22 11:40:39;;;;;;;11.50;10.30;;;;;;;;;;4969715;28;20076;-67
2022/04/22 11:43:09;;;;;;;11.48;10.27;;;;;;;;;;4970625;28;20520;-67
2022/04/22 11:45:37;;;;;;;10.77;9.55;;;;;;;;;;4970199;28;20057;-68
2022/04/22 11:48:11;;;;;;;10.60;9.60;;;;;;;;;;4969763;28;20461;-68
2022/04/22 11:50:39;;;;;;;10.38;9.38;;;;;;;;;;4970249;28;20426;-68
2022/04/22 11:53:20;;;;;;;10.98;9.82;;;;;;;;;;4969952;28;20446;-69
2022/04/22 11:55:47;;;;;;;11.02;9.85;;;;;;;;;;4966875;28;20054;-68
2022/04/22 11:58:21;;;;;;;13.07;10.63;;;;;;;;;;4971589;28;20047;-69
2022/04/22 12:06:25;;;;;;;9.82;8.63;;;;;;;;;;4972227;28;20058;-71
2022/04/22 12:09:04;;;;;;;9.95;8.93;;;;;;;;;;4972565;28;20050;-71
2022/04/22 12:11:38;;;;;;;12.18;10.27;;;;;;;;;;4971084;28;20055;-71
2022/04/22 12:14:05;;;;;;;11.55;9.95;;;;;;;;;;4972665;28;20047;-72
2022/04/22 12:16:32;;;;;;;11.32;9.80;;;;;;;;;;4972087;28;20049;-72
2022/04/22 12:19:00;;;;;;;11.23;9.18;;;;;;;;;;4972456;28;20051;-72
2022/04/22 12:21:33;;;;;;;8.95;7.88;;;;;;;;;;4971183;28;20054;-71
2022/04/22 12:24:00;;;;;;;;;;;;;;;;;;4987361;28;20051;-72
2022/04/22 12:26:34;;;;;;;9.95;8.95;;;;;;;;;;4971148;28;19926;-71
2022/04/22 12:29:14;;;;;;;11.07;9.35;;;;;;;;;;4972020;28;20046;-71
2022/04/22 12:31:52;;;;;;;10.60;8.73;;;;;;;;;;4970773;28;20448;-71
2022/04/22 12:34:34;;;;;;;11.45;8.13;;;;;;;;;;4970538;28;20121;-71
2022/04/22 12:37:06;;;;;;;9.98;8.75;;;;;;;;;;4995278;28;20042;-71
2022/04/22 12:39:51;;;;;;;8.43;7.63;;;;;;;;;;4971182;28;20054;-72
2022/04/22 12:42:17;;;;;;;9.10;8.23;;;;;;;;;;4978783;28;20534;-71
2022/04/22 12:52:08;;;;;;;8.95;7.93;;;;;;;;;;4971663;28;20042;-72
2022/04/22 12:53:27;;;;;;;7.43;6.72;;;;;;;;;;4971382;28;20061;-70
2022/04/22 12:56:03;;;;;;;8.25;7.45;;;;;;;;;;4969645;28;20113;-70
2022/04/22 12:58:29;;;;;;;9.57;8.18;;;;;;;;;;4984588;28;20051;-70
2022/04/22 13:00:56;;;;;;;9.65;8.48;;;;;;;;;;4969802;28;20042;-70
2022/04/22 13:03:23;;;;;;;8.88;7.97;;;;;;;;;;4971813;28;20051;-70
2022/04/22 13:05:49;;;;;;;10.43;9.05;;;;;;;;;;4957959;28;20054;-70
2022/04/22 13:08:17;;;;;;;10.80;9.70;;;;;;;;;;4969364;28;20039;-70
2022/04/22 13:10:44;;;;;;;13.40;10.32;;;;;;;;;;4971365;28;20058;-70
2022/04/22 13:13:12;;;;;;;9.65;8.65;;;;;;;;;;4971841;28;20046;-71
2022/04/22 13:15:39;;;;;;;9.75;8.52;;;;;;;;;;4974380;28;20553;-70
2022/04/22 13:18:05;;;;;;;11.73;9.27;;;;;;;;;;4974815;28;20051;-72
2022/04/22 13:20:32;;;;;;;8.93;8.02;;;;;;;;;;4975034;28;20533;-70
2022/04/22 13:22:58;;;;;;;7.97;7.22;;;;;;;;;;4975033;28;20098;-68
2022/04/22 13:25:25;;;;;;;8.85;8.05;;;;;;;;;;4973464;28;20054;-68
2022/04/22 13:27:52;;;;;;;7.88;6.95;;;;;;;;;;4974934;28;20050;-69
2022/04/22 13:30:18;;;;;;;10.35;8.43;;;;;;;;;;4974904;28;20042;-69
2022/04/22 13:32:45;;;;;;;8.45;7.63;;;;;;;;;;4974245;28;20421;-70
2022/04/22 13:35:13;;;;;;;9.52;7.25;;;;;;;;;;4974970;28;20050;-70
2022/04/22 13:37:40;;;;;;;8.13;7.28;;;;;;;;;;4974786;28;20051;-69
2022/04/22 13:40:07;;;;;;;9.60;7.88;;;;;;;;;;4975112;28;20133;-69
2022/04/22 13:42:34;;;;;;;9.27;7.78;;;;;;;;;;4974467;28;20050;-69
2022/04/22 13:53:16;;;;;;;8.18;7.40;;;;;;;;;;4974787;28;20055;-70
2022/04/22 13:55:43;;;;;;;8.10;7.40;;;;;;;;;;4974623;28;20105;-70
2022/04/22 13:58:09;;;;;;;7.70;7.00;;;;;;;;;;4973379;28;20047;-69
2022/04/22 14:00:36;;;;;;;9.30;8.40;;;;;;;;;;4974181;28;20101;-70
2022/04/22 14:03:03;;;;;;;7.53;6.72;;;;;;;;;;4974090;28;20042;-69
2022/04/22 14:05:30;;;;;;;8.02;7.22;;;;;;;;;;4968298;28;20126;-71
2022/04/22 14:07:57;;;;;;;9.23;7.72;;;;;;;;;;4991175;28;20521;-66
2022/04/22 14:10:23;;;;;;;9.43;7.40;;;;;;;;;;4975622;28;20133;-70
2022/04/22 14:12:50;;;;;;;7.60;6.80;;;;;;;;;;4966716;28;20129;-68
2022/04/22 14:15:17;;;;;;;7.82;7.03;;;;;;;;;;4972347;28;20498;-67
2022/04/22 14:17:46;;;;;;;7.18;6.22;;;;;;;;;;4974399;28;20046;-74
2022/04/22 14:20:13;;;;;;;7.68;6.88;;;;;;;;;;4988407;28;20051;-69
2022/04/22 14:22:40;;;;;;;6.97;6.30;;;;;;;;;;4973745;28;20055;-74
2022/04/22 14:25:08;;;;;;;6.28;5.68;;;;;;;;;;4988547;28;20047;-75
2022/04/22 14:27:35;;;;;;;6.90;6.20;;;;;;;;;;4979743;28;20085;-73
2022/04/22 14:30:02;;;;;;;7.15;5.68;;;;;;;;;;4974201;28;20047;-73
2022/04/22 14:32:29;;;;;;;6.70;5.90;;;;;;;;;;4978420;28;20105;-72
2022/04/22 14:34:56;;;;;;;8.98;6.20;;;;;;;;;;4971116;28;20050;-72
2022/04/22 14:37:23;;;;;;;6.35;5.45;;;;;;;;;;4974054;28;20054;-72
2022/04/22 14:39:50;;;;;;;7.95;5.97;;;;;;;;;;4973873;28;20058;-71
2022/04/22 14:42:17;;;;;;;6.57;5.90;;;;;;;;;;4980329;28;20527;-72
2022/04/22 14:44:44;;;;;;;6.68;5.68;;;;;;;;;;5001597;23;20054;-74
2022/04/22 14:47:12;;;;;;;7.63;5.70;;;;;;;;;;4981670;28;20488;-72
2022/04/22 14:50:05;;;;;;;7.70;5.78;;;;;;;;;;4980134;28;20066;-75
2022/04/22 14:52:33;;;;;;;7.18;6.32;;;;;;;;;;4934426;28;20074;-74
2022/04/22 14:55:18;;;;;;;8.18;6.35;;;;;;;;;;4979289;28;20048;-75
2022/04/22 14:57:49;;;;;;;7.32;6.63;;;;;;;;;;4979940;28;20129;-74
2022/04/22 15:00:17;;;;;;;6.82;5.63;;;;;;;;;;4949499;28;20047;-71
2022/04/22 15:02:44;;;;;;;7.97;6.18;;;;;;;;;;4978948;28;20524;-74
2022/04/22 15:05:10;;;;;;;9.93;6.38;;;;;;;;;;4982141;28;20046;-73
2022/04/22 15:11:25;;;;;;;6.65;5.95;;;;;;;;;;4984863;28;20041;-72
2022/04/22 15:13:55;;;;;;;7.22;6.53;;;;;;;;;;4982549;28;20102;-72
2022/04/22 15:16:27;;;;;;;6.00;5.40;;;;;;;;;;4963026;28;20054;-66
2022/04/22 15:24:24;;;;;;;7.30;6.00;;;;;;;;;;4977064;28;20421;-67
2022/04/22 15:26:54;;;;;;;7.70;5.85;;;;;;;;;;4980915;28;20147;-67
2022/04/22 15:29:21;;;;;;;7.00;6.30;;;;;;;;;;4979590;28;20489;-67
2022/04/22 15:31:47;;;;;;;6.88;6.18;;;;;;;;;;4979422;28;20497;-67
2022/04/22 15:34:14;;;;;;;7.03;6.05;;;;;;;;;;4977925;28;20058;-68
2022/04/22 15:36:42;;;;;;;5.72;5.07;;;;;;;;;;4978432;28;20050;-68
2022/04/22 15:39:09;;;;;;;7.00;5.35;;;;;;;;;;4980471;28;20050;-68
2022/04/22 15:41:36;;;;;;;6.47;5.47;;;;;;;;;;4981616;28;20070;-67
2022/04/22 15:44:04;;;;;;;6.80;5.78;;;;;;;;;;4982463;28;20047;-67
2022/04/22 15:46:31;;;;;;;6.75;5.47;;;;;;;;;;4974819;28;20054;-68
2022/04/22 15:48:57;;;;;;;6.60;5.45;;;;;;;;;;4980377;28;20049;-68
2022/04/22 15:51:24;;;;;;;7.47;5.25;;;;;;;;;;4980732;28;20047;-68
2022/04/22 15:53:52;;;;;;;6.47;5.68;;;;;;;;;;4982429;28;20050;-67
2022/04/22 15:56:19;;;;;;;6.30;5.65;;;;;;;;;;4978093;28;20050;-67